Time;durP1;ratioP1;P1;durP2;ratioP2;P2;SDS_P1;SDS_P2;PMS_P1;PMS_P2;Temp;Humidity;BMP_temperature;BMP_pressure;BME280_temperature;BME280_humidity;BME280_pressure;Samples;Min_cycle;Max_cycle;Signal;HPM_P1;HPM_P2
2022/09/11 00:01:45;;;;;;;0.10;0.10;;;;;;;;;;6225111;22;20022;-92
2022/09/11 00:04:11;;;;;;;0.20;0.20;;;;;;;;;;6225174;22;20016;-92
2022/09/11 00:06:37;;;;;;;0.10;0.10;;;;;;;;;;6224106;22;20330;-92
2022/09/11 00:09:04;;;;;;;0.20;0.20;;;;;;;;;;6225080;22;20100;-92
2022/09/11 00:11:33;;;;;;;0.20;0.20;;;;;;;;;;6225328;22;20016;-91
2022/09/11 00:13:59;;;;;;;0.20;0.20;;;;;;;;;;6225310;22;20675;-91
2022/09/11 00:16:31;;;;;;;0.10;0.10;;;;;;;;;;6225054;22;20589;-91
2022/09/11 00:18:59;;;;;;;0.20;0.20;;;;;;;;;;6224749;22;20015;-92
2022/09/11 00:21:28;;;;;;;0.20;0.20;;;;;;;;;;6226153;22;20337;-92
2022/09/11 00:23:55;;;;;;;0.05;0.05;;;;;;;;;;6225256;22;20011;-91
2022/09/11 00:26:23;;;;;;;0.20;0.20;;;;;;;;;;6225185;22;20012;-91
2022/09/11 00:28:51;;;;;;;0.10;0.10;;;;;;;;;;6224512;22;20012;-91
2022/09/11 00:31:21;;;;;;;0.15;0.15;;;;;;;;;;6224919;22;20011;-91
2022/09/11 00:33:48;;;;;;;0.15;0.15;;;;;;;;;;6225039;22;20622;-92
2022/09/11 00:36:25;;;;;;;0.10;0.10;;;;;;;;;;6224873;22;20069;-90
2022/09/11 00:38:51;;;;;;;0.10;0.10;;;;;;;;;;6224613;22;20041;-91
2022/09/11 00:41:24;;;;;;;0.10;0.10;;;;;;;;;;6225077;22;20099;-91
2022/09/11 00:43:55;;;;;;;0.10;0.10;;;;;;;;;;6225133;22;20026;-92
2022/09/11 00:46:23;;;;;;;0.10;0.10;;;;;;;;;;6224821;22;20020;-91
2022/09/11 00:48:49;;;;;;;0.20;0.20;;;;;;;;;;6224418;22;20026;-91
2022/09/11 00:51:24;;;;;;;0.10;0.10;;;;;;;;;;6225245;22;20015;-91
2022/09/11 00:53:51;;;;;;;0.10;0.10;;;;;;;;;;6250079;22;20019;-91
2022/09/11 00:56:18;;;;;;;0.10;0.10;;;;;;;;;;6225801;22;20015;-91
2022/09/11 00:58:46;;;;;;;0.20;0.20;;;;;;;;;;6227089;22;20018;-90
2022/09/11 01:01:13;;;;;;;0.20;0.20;;;;;;;;;;6227006;22;20015;-91
2022/09/11 01:03:39;;;;;;;0.10;0.10;;;;;;;;;;6227149;22;20150;-90
2022/09/11 01:06:05;;;;;;;0.10;0.10;;;;;;;;;;6226651;22;20691;-92
2022/09/11 01:08:32;;;;;;;0.20;0.20;;;;;;;;;;6226921;22;20066;-91
2022/09/11 01:11:11;;;;;;;0.10;0.10;;;;;;;;;;6226361;22;20027;-92
2022/09/11 01:13:53;;;;;;;0.10;0.10;;;;;;;;;;6226827;22;20073;-91
2022/09/11 01:16:28;;;;;;;0.10;0.10;;;;;;;;;;6226578;22;20012;-91
2022/09/11 01:18:57;;;;;;;0.17;0.17;;;;;;;;;;6226094;22;20102;-91
2022/09/11 01:21:31;;;;;;;0.20;0.20;;;;;;;;;;6226871;22;20007;-90
2022/09/11 01:24:09;;;;;;;0.20;0.20;;;;;;;;;;6226782;22;20019;-91
2022/09/11 01:26:35;;;;;;;0.10;0.10;;;;;;;;;;6226466;22;20020;-90
2022/09/11 01:29:01;;;;;;;0.15;0.15;;;;;;;;;;6226065;22;20616;-91
2022/09/11 01:31:35;;;;;;;0.20;0.20;;;;;;;;;;6226788;22;20024;-90
2022/09/11 01:34:24;;;;;;;0.10;0.10;;;;;;;;;;6226612;22;20054;-90
2022/09/11 01:36:52;;;;;;;0.15;0.15;;;;;;;;;;6243623;22;20019;-90
2022/09/11 01:39:20;;;;;;;0.10;0.10;;;;;;;;;;6226189;22;20433;-91
2022/09/11 01:42:00;;;;;;;0.10;0.10;;;;;;;;;;6226238;22;20326;-91
2022/09/11 01:44:30;;;;;;;0.10;0.10;;;;;;;;;;6226703;22;20387;-91
2022/09/11 01:46:58;;;;;;;0.10;0.10;;;;;;;;;;6226069;22;20018;-91
2022/09/11 01:49:34;;;;;;;0.20;0.20;;;;;;;;;;6225517;22;20015;-91
2022/09/11 01:52:02;;;;;;;0.10;0.10;;;;;;;;;;6226665;22;20345;-91
2022/09/11 01:54:31;;;;;;;0.17;0.17;;;;;;;;;;6226011;22;20104;-91
2022/09/11 01:57:01;;;;;;;0.10;0.10;;;;;;;;;;6226643;22;20011;-92
2022/09/11 01:59:33;;;;;;;0.10;0.10;;;;;;;;;;6225681;22;20017;-92
2022/09/11 02:02:05;;;;;;;0.20;0.20;;;;;;;;;;6226002;22;20015;-91
2022/09/11 02:04:53;;;;;;;0.10;0.10;;;;;;;;;;6226360;22;20019;-91
2022/09/11 02:07:23;;;;;;;0.13;0.13;;;;;;;;;;6226096;22;20019;-91
2022/09/11 02:10:02;;;;;;;0.20;0.20;;;;;;;;;;6225776;22;20015;-91
2022/09/11 02:12:39;;;;;;;0.10;0.10;;;;;;;;;;6226148;22;20020;-91
2022/09/11 02:15:05;;;;;;;0.10;0.10;;;;;;;;;;6226703;22;20337;-91
2022/09/11 02:17:31;;;;;;;0.20;0.20;;;;;;;;;;6226227;22;20065;-91
2022/09/11 02:19:59;;;;;;;0.20;0.20;;;;;;;;;;6225948;22;20016;-91
2022/09/11 02:22:25;;;;;;;0.20;0.20;;;;;;;;;;6226274;22;20020;-91
2022/09/11 02:24:51;;;;;;;0.20;0.20;;;;;;;;;;6226201;22;20022;-91
2022/09/11 02:27:22;;;;;;;0.20;0.20;;;;;;;;;;6226075;22;20020;-91
2022/09/11 02:29:48;;;;;;;0.13;0.13;;;;;;;;;;6225883;22;20019;-91
2022/09/11 02:32:15;;;;;;;0.10;0.10;;;;;;;;;;6225754;22;20019;-90
2022/09/11 02:34:42;;;;;;;0.00;0.00;;;;;;;;;;6226098;22;20076;-89
2022/09/11 02:37:20;;;;;;;0.10;0.10;;;;;;;;;;6225999;22;20030;-91
2022/09/11 02:40:05;;;;;;;0.10;0.10;;;;;;;;;;6225145;22;20016;-90
2022/09/11 02:42:31;;;;;;;0.10;0.10;;;;;;;;;;6226066;22;20038;-90
2022/09/11 02:45:11;;;;;;;0.20;0.20;;;;;;;;;;6225818;22;20027;-90
2022/09/11 02:47:40;;;;;;;0.15;0.15;;;;;;;;;;6225591;22;20349;-90
2022/09/11 02:50:17;;;;;;;0.10;0.10;;;;;;;;;;6250746;22;20101;-92
2022/09/11 02:53:09;;;;;;;0.10;0.10;;;;;;;;;;6226295;22;20016;-91
2022/09/11 02:55:38;;;;;;;0.10;0.10;;;;;;;;;;6214108;22;20499;-92
2022/09/11 02:58:16;;;;;;;0.30;0.30;;;;;;;;;;6225807;22;20051;-91
2022/09/11 03:00:46;;;;;;;0.10;0.10;;;;;;;;;;6225102;22;20061;-91
2022/09/11 03:03:12;;;;;;;0.20;0.20;;;;;;;;;;6225793;22;20099;-91
2022/09/11 03:05:39;;;;;;;0.30;0.30;;;;;;;;;;6225906;22;20015;-91
2022/09/11 03:08:06;;;;;;;0.20;0.20;;;;;;;;;;6225774;22;20038;-92
2022/09/11 03:10:33;;;;;;;0.20;0.20;;;;;;;;;;6225298;22;20023;-91
2022/09/11 03:12:59;;;;;;;0.20;0.20;;;;;;;;;;6225542;22;20349;-92
2022/09/11 03:15:26;;;;;;;0.10;0.10;;;;;;;;;;6225434;22;20011;-91
2022/09/11 03:17:52;;;;;;;0.20;0.20;;;;;;;;;;6225929;22;20076;-91
2022/09/11 03:20:19;;;;;;;0.20;0.20;;;;;;;;;;6224770;22;20011;-91
2022/09/11 03:22:45;;;;;;;0.10;0.10;;;;;;;;;;6225535;22;20045;-91
2022/09/11 03:25:11;;;;;;;0.10;0.10;;;;;;;;;;6225921;22;20034;-92
2022/09/11 03:27:38;;;;;;;0.20;0.20;;;;;;;;;;6225498;22;20054;-91
2022/09/11 03:30:05;;;;;;;0.10;0.10;;;;;;;;;;6225290;22;20030;-91
2022/09/11 03:32:31;;;;;;;0.13;0.13;;;;;;;;;;6225645;22;20412;-91
2022/09/11 03:34:58;;;;;;;0.28;0.28;;;;;;;;;;6225256;22;20098;-91
2022/09/11 03:37:25;;;;;;;0.30;0.30;;;;;;;;;;6250884;22;20016;-91
2022/09/11 03:39:53;;;;;;;0.30;0.30;;;;;;;;;;6224894;22;20349;-90
2022/09/11 03:42:19;;;;;;;0.20;0.20;;;;;;;;;;6225287;22;20026;-91
2022/09/11 03:44:46;;;;;;;0.10;0.10;;;;;;;;;;6225307;22;20019;-90
2022/09/11 03:47:12;;;;;;;0.20;0.20;;;;;;;;;;6225066;22;20016;-91
2022/09/11 03:49:38;;;;;;;0.10;0.10;;;;;;;;;;6224709;22;20020;-90
2022/09/11 03:52:05;;;;;;;0.28;0.28;;;;;;;;;;6225419;22;20106;-90
2022/09/11 03:54:31;;;;;;;0.30;0.30;;;;;;;;;;6225005;22;20051;-90
2022/09/11 03:56:57;;;;;;;0.20;0.20;;;;;;;;;;6225667;22;20337;-90
2022/09/11 03:59:24;;;;;;;0.30;0.30;;;;;;;;;;6224670;22;20022;-89
2022/09/11 04:01:50;;;;;;;0.10;0.10;;;;;;;;;;6224648;22;20011;-90
2022/09/11 04:04:16;;;;;;;0.20;0.20;;;;;;;;;;6225342;22;20448;-90
2022/09/11 04:06:43;;;;;;;0.10;0.10;;;;;;;;;;6225446;22;20019;-90
2022/09/11 04:09:09;;;;;;;0.10;0.10;;;;;;;;;;6224627;22;20019;-90
2022/09/11 04:11:38;;;;;;;0.10;0.10;;;;;;;;;;6225137;22;20011;-90
2022/09/11 04:14:05;;;;;;;0.10;0.10;;;;;;;;;;6225145;22;20020;-90
2022/09/11 04:16:32;;;;;;;0.15;0.15;;;;;;;;;;6225058;22;20026;-90
2022/09/11 04:18:59;;;;;;;0.20;0.20;;;;;;;;;;6224492;22;20016;-91
2022/09/11 04:21:26;;;;;;;0.10;0.10;;;;;;;;;;6224872;22;20018;-90
2022/09/11 04:23:55;;;;;;;0.80;0.80;;;;;;;;;;6225096;22;20015;-91
2022/09/11 04:26:22;;;;;;;0.13;0.13;;;;;;;;;;6225105;22;20077;-90
2022/09/11 04:28:48;;;;;;;0.20;0.20;;;;;;;;;;6224879;22;20102;-90
2022/09/11 04:31:16;;;;;;;0.20;0.20;;;;;;;;;;6225542;22;20027;-90
2022/09/11 04:33:43;;;;;;;0.10;0.10;;;;;;;;;;6227041;22;20015;-91
2022/09/11 04:36:10;;;;;;;0.20;0.20;;;;;;;;;;6252324;22;20146;-90
2022/09/11 04:38:37;;;;;;;0.20;0.20;;;;;;;;;;6227303;22;20016;-91
2022/09/11 04:41:04;;;;;;;0.10;0.10;;;;;;;;;;6226663;22;20012;-91
2022/09/11 04:43:30;;;;;;;0.20;0.20;;;;;;;;;;6227335;22;20087;-91
2022/09/11 04:46:04;;;;;;;0.20;0.20;;;;;;;;;;6227127;22;20055;-90
2022/09/11 04:48:31;;;;;;;0.10;0.10;;;;;;;;;;6227045;22;20023;-91
2022/09/11 04:51:01;;;;;;;0.20;0.20;;;;;;;;;;6251654;22;20349;-91
2022/09/11 04:53:27;;;;;;;0.25;0.25;;;;;;;;;;6226960;22;20047;-90
2022/09/11 04:56:01;;;;;;;0.20;0.20;;;;;;;;;;6227095;22;20012;-90
2022/09/11 04:58:28;;;;;;;0.10;0.10;;;;;;;;;;6227004;22;20345;-90
2022/09/11 05:00:54;;;;;;;0.30;0.30;;;;;;;;;;6226194;22;20492;-90
2022/09/11 05:03:20;;;;;;;0.15;0.15;;;;;;;;;;6226888;22;20503;-91
2022/09/11 05:05:46;;;;;;;0.30;0.30;;;;;;;;;;6226688;22;20441;-90
2022/09/11 05:08:12;;;;;;;0.20;0.20;;;;;;;;;;6226891;22;20345;-90
2022/09/11 05:10:38;;;;;;;0.20;0.20;;;;;;;;;;6226399;22;20026;-90
2022/09/11 05:13:04;;;;;;;0.30;0.30;;;;;;;;;;6226767;22;20445;-90
2022/09/11 05:15:30;;;;;;;0.20;0.20;;;;;;;;;;6226929;22;20084;-89
2022/09/11 05:17:57;;;;;;;0.20;0.20;;;;;;;;;;6226589;22;20019;-90
2022/09/11 05:20:23;;;;;;;0.17;0.17;;;;;;;;;;6226053;22;20069;-90
2022/09/11 05:22:50;;;;;;;0.20;0.20;;;;;;;;;;6226639;22;20019;-90
2022/09/11 05:25:17;;;;;;;0.10;0.10;;;;;;;;;;6226838;22;20019;-91
2022/09/11 05:27:43;;;;;;;0.10;0.10;;;;;;;;;;6226646;22;20016;-90
2022/09/11 05:30:10;;;;;;;0.20;0.20;;;;;;;;;;6226019;22;20015;-90
2022/09/11 05:32:36;;;;;;;0.20;0.20;;;;;;;;;;6226905;22;20020;-90
2022/09/11 05:35:02;;;;;;;0.20;0.20;;;;;;;;;;6226279;22;20065;-90
2022/09/11 05:37:28;;;;;;;0.20;0.20;;;;;;;;;;6226479;22;20015;-90
2022/09/11 05:39:54;;;;;;;0.20;0.20;;;;;;;;;;6226029;22;20103;-90
2022/09/11 05:42:20;;;;;;;0.20;0.20;;;;;;;;;;6226359;22;20055;-89
2022/09/11 05:44:47;;;;;;;0.17;0.17;;;;;;;;;;6226262;22;20102;-90
2022/09/11 05:47:13;;;;;;;0.10;0.10;;;;;;;;;;6226328;22;20011;-90
2022/09/11 05:49:39;;;;;;;0.30;0.30;;;;;;;;;;6226253;22;20023;-90
2022/09/11 05:52:05;;;;;;;0.20;0.20;;;;;;;;;;6226070;22;20019;-90
2022/09/11 05:54:31;;;;;;;0.30;0.30;;;;;;;;;;6226746;22;20018;-90
2022/09/11 05:56:57;;;;;;;0.20;0.20;;;;;;;;;;6226307;22;20015;-90
2022/09/11 05:59:25;;;;;;;0.10;0.10;;;;;;;;;;6225631;22;20054;-90
2022/09/11 06:01:52;;;;;;;0.20;0.20;;;;;;;;;;6226114;22;20065;-90
2022/09/11 06:04:18;;;;;;;0.30;0.30;;;;;;;;;;6226343;22;20016;-89
2022/09/11 06:06:46;;;;;;;0.20;0.20;;;;;;;;;;6226144;22;20058;-90
2022/09/11 06:09:13;;;;;;;0.20;0.20;;;;;;;;;;6225601;22;20015;-89
2022/09/11 06:11:39;;;;;;;0.20;0.20;;;;;;;;;;6226229;22;20015;-90
2022/09/11 06:14:05;;;;;;;0.10;0.10;;;;;;;;;;6226259;22;20067;-90
2022/09/11 06:16:32;;;;;;;0.10;0.10;;;;;;;;;;6225915;22;20372;-90
2022/09/11 06:18:58;;;;;;;0.10;0.10;;;;;;;;;;6225437;22;20015;-90
2022/09/11 06:21:26;;;;;;;0.10;0.10;;;;;;;;;;6226378;22;20341;-90
2022/09/11 06:23:52;;;;;;;0.20;0.20;;;;;;;;;;6225825;22;20020;-90
2022/09/11 06:26:23;;;;;;;0.43;0.43;;;;;;;;;;6226202;22;20027;-89
2022/09/11 06:28:49;;;;;;;0.30;0.30;;;;;;;;;;6225125;22;20016;-89
2022/09/11 06:31:17;;;;;;;0.10;0.10;;;;;;;;;;6225911;22;20021;-90
2022/09/11 06:33:43;;;;;;;0.10;0.10;;;;;;;;;;6225701;22;20322;-90
2022/09/11 06:36:10;;;;;;;0.20;0.20;;;;;;;;;;6225715;22;20065;-90
2022/09/11 06:38:40;;;;;;;0.20;0.20;;;;;;;;;;6225900;22;20429;-90
2022/09/11 06:41:11;;;;;;;0.20;0.20;;;;;;;;;;6225307;22;20012;-89
2022/09/11 06:43:37;;;;;;;0.30;0.30;;;;;;;;;;6225845;22;20462;-89
2022/09/11 06:46:04;;;;;;;0.20;0.20;;;;;;;;;;6225392;22;20403;-90
2022/09/11 06:48:30;;;;;;;0.10;0.10;;;;;;;;;;6225756;22;20027;-90
2022/09/11 06:50:56;;;;;;;0.10;0.10;;;;;;;;;;6225526;22;20020;-90
2022/09/11 06:53:22;;;;;;;0.17;0.17;;;;;;;;;;6225581;22;20089;-89
2022/09/11 06:55:48;;;;;;;0.10;0.10;;;;;;;;;;6225436;22;20418;-90
2022/09/11 06:58:14;;;;;;;0.10;0.10;;;;;;;;;;6225875;22;20019;-91
2022/09/11 07:00:40;;;;;;;0.10;0.10;;;;;;;;;;6225148;22;20099;-90
2022/09/11 07:03:06;;;;;;;0.20;0.20;;;;;;;;;;6225605;22;20441;-90
2022/09/11 07:05:32;;;;;;;0.20;0.20;;;;;;;;;;6225533;22;20027;-89
2022/09/11 07:07:58;;;;;;;0.20;0.20;;;;;;;;;;6225619;22;20019;-90
2022/09/11 07:10:24;;;;;;;0.10;0.10;;;;;;;;;;6224650;22;20019;-90
2022/09/11 07:13:09;;;;;;;0.10;0.10;;;;;;;;;;6225482;22;20361;-90
2022/09/11 07:15:35;;;;;;;0.10;0.10;;;;;;;;;;6225555;22;20014;-90
2022/09/11 07:18:02;;;;;;;0.10;0.10;;;;;;;;;;6225508;22;20015;-89
2022/09/11 07:20:28;;;;;;;0.10;0.10;;;;;;;;;;6224743;22;20061;-90
2022/09/11 07:22:54;;;;;;;0.13;0.13;;;;;;;;;;6225085;22;20149;-90
2022/09/11 07:25:20;;;;;;;0.20;0.20;;;;;;;;;;6225301;22;20461;-89
2022/09/11 07:27:46;;;;;;;0.10;0.10;;;;;;;;;;6225470;22;20016;-90
2022/09/11 07:30:12;;;;;;;0.10;0.10;;;;;;;;;;6224749;22;20026;-90
2022/09/11 07:32:38;;;;;;;0.20;0.20;;;;;;;;;;6225529;22;20023;-90
2022/09/11 07:35:05;;;;;;;0.20;0.20;;;;;;;;;;6251061;22;20023;-90
2022/09/11 07:37:31;;;;;;;0.20;0.20;;;;;;;;;;6250505;22;20065;-89
2022/09/11 07:39:57;;;;;;;0.20;0.20;;;;;;;;;;6225070;22;20015;-90
2022/09/11 07:42:23;;;;;;;0.20;0.20;;;;;;;;;;6225445;22;20034;-90
2022/09/11 07:44:49;;;;;;;0.10;0.10;;;;;;;;;;6225410;22;20055;-90
2022/09/11 07:47:15;;;;;;;0.10;0.10;;;;;;;;;;6225027;22;20106;-90
2022/09/11 07:49:41;;;;;;;0.20;0.20;;;;;;;;;;6224803;22;20023;-90
2022/09/11 07:52:08;;;;;;;0.10;0.10;;;;;;;;;;6225622;22;20440;-90
2022/09/11 07:54:34;;;;;;;0.20;0.20;;;;;;;;;;6225684;22;20433;-91
2022/09/11 07:57:01;;;;;;;0.20;0.20;;;;;;;;;;6225217;22;20049;-90
2022/09/11 07:59:27;;;;;;;0.10;0.10;;;;;;;;;;6224719;22;20097;-90
2022/09/11 08:01:54;;;;;;;0.10;0.10;;;;;;;;;;6224489;22;20016;-90
2022/09/11 08:04:20;;;;;;;0.10;0.10;;;;;;;;;;6222895;22;20016;-89
2022/09/11 08:06:46;;;;;;;0.10;0.10;;;;;;;;;;6223811;22;20047;-89
2022/09/11 08:09:14;;;;;;;0.10;0.10;;;;;;;;;;6223590;22;20042;-90
2022/09/11 08:11:44;;;;;;;0.10;0.10;;;;;;;;;;6224275;22;20094;-90
2022/09/11 08:14:12;;;;;;;0.10;0.10;;;;;;;;;;6224544;22;20015;-90
2022/09/11 08:16:38;;;;;;;0.10;0.10;;;;;;;;;;6224223;22;20050;-90
2022/09/11 08:19:05;;;;;;;0.15;0.15;;;;;;;;;;6223660;22;20020;-91
2022/09/11 08:21:32;;;;;;;0.10;0.10;;;;;;;;;;6223311;22;20026;-90
2022/09/11 08:24:03;;;;;;;0.57;0.40;;;;;;;;;;6221532;22;20395;-90
2022/09/11 08:26:30;;;;;;;0.10;0.10;;;;;;;;;;6223442;22;20047;-91
2022/09/11 08:28:57;;;;;;;0.10;0.10;;;;;;;;;;6248595;22;20016;-91
2022/09/11 08:31:27;;;;;;;0.30;0.30;;;;;;;;;;6223453;22;20434;-89
2022/09/11 08:33:54;;;;;;;0.03;0.03;;;;;;;;;;6223053;22;20031;-91
2022/09/11 08:36:20;;;;;;;0.10;0.10;;;;;;;;;;6223436;22;20035;-91
2022/09/11 08:38:46;;;;;;;0.10;0.10;;;;;;;;;;6223345;22;20015;-90
2022/09/11 08:41:20;;;;;;;0.10;0.10;;;;;;;;;;6223576;22;20015;-91
2022/09/11 08:43:53;;;;;;;0.10;0.10;;;;;;;;;;6224002;22;20109;-90
2022/09/11 08:46:21;;;;;;;0.10;0.10;;;;;;;;;;6223957;22;20317;-91
2022/09/11 08:48:56;;;;;;;0.10;0.10;;;;;;;;;;6223424;22;20019;-90
2022/09/11 08:51:24;;;;;;;0.10;0.10;;;;;;;;;;6223920;22;20015;-91
2022/09/11 08:53:51;;;;;;;0.08;0.08;;;;;;;;;;6224021;22;20054;-91
2022/09/11 08:56:18;;;;;;;0.13;0.13;;;;;;;;;;6224647;22;20023;-91
2022/09/11 08:58:54;;;;;;;0.10;0.10;;;;;;;;;;6223740;22;20095;-89
2022/09/11 09:01:35;;;;;;;0.13;0.13;;;;;;;;;;6224109;22;20020;-90
2022/09/11 09:04:12;;;;;;;0.10;0.10;;;;;;;;;;6224198;22;20027;-90
2022/09/11 09:07:00;;;;;;;0.10;0.10;;;;;;;;;;6224072;22;20380;-90
2022/09/11 09:09:44;;;;;;;0.17;0.17;;;;;;;;;;6223512;22;20338;-90
2022/09/11 09:12:10;;;;;;;0.00;0.00;;;;;;;;;;6223796;22;20023;-90
2022/09/11 09:14:50;;;;;;;0.10;0.10;;;;;;;;;;6224131;22;20012;-90
2022/09/11 09:17:20;;;;;;;0.10;0.10;;;;;;;;;;6224346;22;20011;-89
2022/09/11 09:19:59;;;;;;;0.10;0.10;;;;;;;;;;6225227;22;20460;-89
2022/09/11 09:22:37;;;;;;;0.10;0.10;;;;;;;;;;6225475;22;20020;-90
2022/09/11 09:25:10;;;;;;;0.05;0.05;;;;;;;;;;6225373;22;20078;-89
2022/09/11 09:27:39;;;;;;;0.10;0.10;;;;;;;;;;6225515;22;20023;-90
2022/09/11 09:30:07;;;;;;;0.00;0.00;;;;;;;;;;6225054;22;20091;-89
2022/09/11 09:32:41;;;;;;;0.10;0.10;;;;;;;;;;6225248;22;20149;-89
2022/09/11 09:35:15;;;;;;;0.03;0.03;;;;;;;;;;6225544;22;20468;-89
2022/09/11 09:37:42;;;;;;;0.10;0.10;;;;;;;;;;6225526;22;20016;-90
2022/09/11 09:40:09;;;;;;;0.10;0.10;;;;;;;;;;6225067;22;20011;-90
2022/09/11 09:43:01;;;;;;;0.10;0.10;;;;;;;;;;6225668;22;20392;-90
2022/09/11 09:45:37;;;;;;;0.00;0.00;;;;;;;;;;6225361;22;20015;-89
2022/09/11 09:48:03;;;;;;;0.10;0.10;;;;;;;;;;6225555;22;20024;-89
2022/09/11 09:50:33;;;;;;;0.10;0.10;;;;;;;;;;6224930;22;20016;-94
2022/09/11 09:53:09;;;;;;;0.10;0.10;;;;;;;;;;6225600;22;20054;-94
2022/09/11 09:55:37;;;;;;;0.00;0.00;;;;;;;;;;6225837;22;20060;-94
2022/09/11 09:58:06;;;;;;;0.10;0.10;;;;;;;;;;6226044;22;20012;-94
2022/09/11 10:00:35;;;;;;;0.10;0.10;;;;;;;;;;6224887;22;20034;-96
2022/09/11 10:03:16;;;;;;;0.10;0.10;;;;;;;;;;6225746;22;20019;-89
2022/09/11 10:05:43;;;;;;;0.10;0.10;;;;;;;;;;6225417;22;20098;-91
2022/09/11 10:08:28;;;;;;;0.10;0.10;;;;;;;;;;6226066;22;20073;-91
2022/09/11 10:11:07;;;;;;;0.10;0.10;;;;;;;;;;6225667;22;20020;-92
2022/09/11 10:13:37;;;;;;;0.13;0.13;;;;;;;;;;6225716;22;20042;-91
2022/09/11 10:16:04;;;;;;;0.10;0.10;;;;;;;;;;6225031;22;20019;-91
2022/09/11 10:18:31;;;;;;;0.08;0.08;;;;;;;;;;6226164;22;20174;-90
2022/09/11 10:21:20;;;;;;;0.10;0.10;;;;;;;;;;6224158;22;20061;-89
2022/09/11 10:23:49;;;;;;;0.10;0.10;;;;;;;;;;6225118;22;20388;-90
2022/09/11 10:26:16;;;;;;;0.20;0.20;;;;;;;;;;6225338;22;20015;-91
2022/09/11 10:28:44;;;;;;;0.10;0.10;;;;;;;;;;6224954;22;20065;-91
2022/09/11 10:31:16;;;;;;;0.10;0.10;;;;;;;;;;6223741;22;20345;-91
2022/09/11 10:33:48;;;;;;;0.10;0.10;;;;;;;;;;6225197;22;20391;-90
2022/09/11 10:36:24;;;;;;;0.10;0.10;;;;;;;;;;6225507;22;20074;-90
2022/09/11 10:38:51;;;;;;;0.10;0.10;;;;;;;;;;6225209;22;20099;-91
2022/09/11 10:41:19;;;;;;;0.00;0.00;;;;;;;;;;6225586;22;20015;-90
2022/09/11 10:44:08;;;;;;;0.10;0.10;;;;;;;;;;6225489;22;20016;-91
2022/09/11 10:46:36;;;;;;;0.10;0.10;;;;;;;;;;6249409;22;20098;-90
2022/09/11 10:49:02;;;;;;;0.00;0.00;;;;;;;;;;6223602;22;20065;-91
2022/09/11 10:51:30;;;;;;;0.10;0.10;;;;;;;;;;6224749;22;20020;-90
2022/09/11 10:53:56;;;;;;;0.00;0.00;;;;;;;;;;6225173;22;20461;-91
2022/09/11 10:56:23;;;;;;;0.10;0.10;;;;;;;;;;6223901;22;20023;-91
2022/09/11 10:58:52;;;;;;;0.10;0.10;;;;;;;;;;6224622;22;20015;-90
2022/09/11 11:01:18;;;;;;;0.00;0.00;;;;;;;;;;6224781;22;20532;-92
2022/09/11 11:03:45;;;;;;;0.00;0.00;;;;;;;;;;6225057;22;20019;-93
2022/09/11 11:06:20;;;;;;;0.10;0.10;;;;;;;;;;6223207;22;20015;-93
2022/09/11 11:09:01;;;;;;;0.08;0.08;;;;;;;;;;6224577;22;20020;-93
2022/09/11 11:11:39;;;;;;;0.10;0.10;;;;;;;;;;6224519;22;20019;-93
2022/09/11 11:14:29;;;;;;;0.10;0.10;;;;;;;;;;6224718;22;20027;-92
2022/09/11 11:16:55;;;;;;;0.10;0.10;;;;;;;;;;6223588;22;20327;-93
2022/09/11 11:19:21;;;;;;;0.10;0.10;;;;;;;;;;6224249;22;20460;-92
2022/09/11 11:21:53;;;;;;;0.03;0.03;;;;;;;;;;6224899;22;20058;-93
2022/09/11 11:24:48;;;;;;;0.00;0.00;;;;;;;;;;6224595;22;20016;-92
2022/09/11 11:27:31;;;;;;;0.08;0.08;;;;;;;;;;6196343;22;20016;-92
2022/09/11 11:37:17;;;;;;;0.10;0.10;;;;;;;;;;6164131;23;20048;-92
2022/09/11 11:46:47;;;;;;;0.10;0.10;;;;;;;;;;6132450;23;20009;-92
2022/09/11 11:49:44;;;;;;;0.10;0.10;;;;;;;;;;6089593;23;20025;-93
2022/09/11 11:52:14;;;;;;;0.10;0.10;;;;;;;;;;6135241;22;20028;-93
2022/09/11 11:55:01;;;;;;;0.00;0.00;;;;;;;;;;6223576;22;20011;-93
2022/09/11 12:00:55;;;;;;;0.00;0.00;;;;;;;;;;6223499;23;20039;-92
2022/09/11 12:03:45;;;;;;;0.03;0.03;;;;;;;;;;6221836;22;20109;-93
2022/09/11 12:06:54;;;;;;;0.10;0.10;;;;;;;;;;6158951;23;20036;-92
2022/09/11 12:09:33;;;;;;;0.10;0.10;;;;;;;;;;6213928;22;20020;-91
2022/09/11 12:12:04;;;;;;;0.10;0.10;;;;;;;;;;6223591;22;20012;-91
2022/09/11 12:14:50;;;;;;;0.10;0.10;;;;;;;;;;6224302;22;20585;-89
2022/09/11 12:17:18;;;;;;;0.10;0.10;;;;;;;;;;6224391;22;20100;-89
2022/09/11 12:20:03;;;;;;;0.17;0.17;;;;;;;;;;6223689;22;20023;-90
2022/09/11 12:22:33;;;;;;;0.05;0.05;;;;;;;;;;6223021;22;20020;-91
2022/09/11 12:25:27;;;;;;;0.10;0.10;;;;;;;;;;6223995;22;20073;-90
2022/09/11 12:28:09;;;;;;;0.10;0.10;;;;;;;;;;6212131;22;20020;-89
2022/09/11 12:30:55;;;;;;;0.10;0.10;;;;;;;;;;6223475;22;20055;-90
2022/09/11 12:33:40;;;;;;;0.10;0.10;;;;;;;;;;6224053;22;20412;-90
2022/09/11 12:36:15;;;;;;;0.10;0.10;;;;;;;;;;6250004;22;20016;-89
2022/09/11 12:38:53;;;;;;;0.00;0.00;;;;;;;;;;6224210;22;20020;-89
2022/09/11 12:41:30;;;;;;;0.00;0.00;;;;;;;;;;6224154;22;20047;-90
2022/09/11 12:43:57;;;;;;;0.10;0.10;;;;;;;;;;6224320;22;20055;-90
2022/09/11 12:46:24;;;;;;;0.10;0.10;;;;;;;;;;6223842;22;20019;-90
2022/09/11 12:48:57;;;;;;;0.00;0.00;;;;;;;;;;6223650;22;20023;-90
2022/09/11 12:51:25;;;;;;;0.10;0.10;;;;;;;;;;6223991;22;20153;-90
2022/09/11 12:53:52;;;;;;;0.10;0.10;;;;;;;;;;6226113;22;20027;-90
2022/09/11 12:56:20;;;;;;;0.10;0.10;;;;;;;;;;6225945;22;20066;-90
2022/09/11 12:58:51;;;;;;;0.10;0.10;;;;;;;;;;6226200;22;20062;-88
2022/09/11 13:01:36;;;;;;;0.10;0.10;;;;;;;;;;6225907;22;20023;-90
2022/09/11 13:04:02;;;;;;;0.10;0.10;;;;;;;;;;6226171;22;20051;-89
2022/09/11 13:06:50;;;;;;;0.10;0.10;;;;;;;;;;6225822;22;20025;-90
2022/09/11 13:09:27;;;;;;;0.10;0.10;;;;;;;;;;6250716;22;20495;-90
2022/09/11 13:11:54;;;;;;;0.10;0.10;;;;;;;;;;6225685;22;20392;-90
2022/09/11 13:14:23;;;;;;;0.00;0.00;;;;;;;;;;6225973;22;20464;-90
2022/09/11 13:16:49;;;;;;;0.17;0.17;;;;;;;;;;6225854;22;20034;-90
2022/09/11 13:19:18;;;;;;;0.10;0.10;;;;;;;;;;6225519;22;20034;-90
2022/09/11 13:21:47;;;;;;;0.10;0.10;;;;;;;;;;6226093;22;20099;-91
2022/09/11 13:24:27;;;;;;;0.20;0.20;;;;;;;;;;6226549;22;20050;-90
2022/09/11 13:26:55;;;;;;;0.08;0.08;;;;;;;;;;6226276;22;20023;-91
2022/09/11 13:29:25;;;;;;;0.03;0.03;;;;;;;;;;6225723;22;20039;-91
2022/09/11 13:31:52;;;;;;;0.00;0.00;;;;;;;;;;6225918;22;20023;-90
2022/09/11 13:34:19;;;;;;;0.05;0.05;;;;;;;;;;6225663;22;20016;-90
2022/09/11 13:36:46;;;;;;;0.17;0.17;;;;;;;;;;6225759;22;20037;-90
2022/09/11 13:39:14;;;;;;;0.10;0.10;;;;;;;;;;6225281;22;20433;-91
2022/09/11 13:41:43;;;;;;;0.20;0.20;;;;;;;;;;6226027;22;20016;-90
2022/09/11 13:44:28;;;;;;;0.10;0.10;;;;;;;;;;6225481;22;20020;-89
2022/09/11 13:46:54;;;;;;;0.00;0.00;;;;;;;;;;6225622;22;20015;-90
2022/09/11 13:49:37;;;;;;;0.10;0.10;;;;;;;;;;6225073;22;20011;-91
2022/09/11 13:52:07;;;;;;;0.10;0.10;;;;;;;;;;6226058;22;20015;-90
2022/09/11 13:54:40;;;;;;;0.10;0.10;;;;;;;;;;6225793;22;20393;-90
2022/09/11 13:57:14;;;;;;;0.00;0.00;;;;;;;;;;6225626;22;20016;-91
2022/09/11 13:59:45;;;;;;;0.03;0.03;;;;;;;;;;6225476;22;20023;-92
2022/09/11 14:02:27;;;;;;;0.10;0.10;;;;;;;;;;6225220;22;20054;-90
2022/09/11 14:04:59;;;;;;;0.10;0.10;;;;;;;;;;6225778;22;20039;-90
2022/09/11 14:07:26;;;;;;;0.00;0.00;;;;;;;;;;6226016;22;20012;-91
2022/09/11 14:09:59;;;;;;;0.10;0.10;;;;;;;;;;6225114;22;20026;-91
2022/09/11 14:12:25;;;;;;;0.15;0.15;;;;;;;;;;6225485;22;20019;-91
2022/09/11 14:14:54;;;;;;;0.10;0.10;;;;;;;;;;6225554;22;20016;-91
2022/09/11 14:17:20;;;;;;;0.08;0.08;;;;;;;;;;6225579;22;20337;-91
2022/09/11 14:19:49;;;;;;;0.10;0.10;;;;;;;;;;6223446;22;20020;-90
2022/09/11 14:22:20;;;;;;;0.10;0.10;;;;;;;;;;6223173;22;20524;-90
2022/09/11 14:25:02;;;;;;;0.00;0.00;;;;;;;;;;6224608;22;20020;-91
2022/09/11 14:27:31;;;;;;;0.00;0.00;;;;;;;;;;6223849;22;20012;-91
2022/09/11 14:29:58;;;;;;;0.00;0.00;;;;;;;;;;6223881;22;20018;-90
2022/09/11 14:32:47;;;;;;;0.00;0.00;;;;;;;;;;6224712;22;20051;-90
2022/09/11 14:35:13;;;;;;;0.20;0.20;;;;;;;;;;6224566;22;20019;-91
2022/09/11 14:37:44;;;;;;;0.00;0.00;;;;;;;;;;6222378;22;20016;-91
2022/09/11 14:40:15;;;;;;;0.00;0.00;;;;;;;;;;6224030;22;20007;-90
2022/09/11 14:42:41;;;;;;;0.08;0.08;;;;;;;;;;6224485;22;20394;-91
2022/09/11 14:45:26;;;;;;;0.10;0.10;;;;;;;;;;6224466;22;20103;-91
2022/09/11 14:47:52;;;;;;;0.00;0.00;;;;;;;;;;6224002;22;20016;-92
2022/09/11 14:50:18;;;;;;;0.05;0.05;;;;;;;;;;6224119;22;20100;-92
2022/09/11 14:52:45;;;;;;;0.10;0.10;;;;;;;;;;6224819;22;20075;-90
2022/09/11 14:55:16;;;;;;;0.10;0.10;;;;;;;;;;6224931;22;20019;-92
2022/09/11 14:57:45;;;;;;;0.05;0.05;;;;;;;;;;6222045;22;20461;-91
2022/09/11 15:00:24;;;;;;;0.00;0.00;;;;;;;;;;6223496;22;20017;-93
2022/09/11 15:02:59;;;;;;;0.00;0.00;;;;;;;;;;6225414;22;20016;-92
2022/09/11 15:05:27;;;;;;;0.00;0.00;;;;;;;;;;6223859;22;20034;-92
2022/09/11 15:07:54;;;;;;;0.10;0.10;;;;;;;;;;6224760;22;20106;-93
2022/09/11 15:10:20;;;;;;;0.10;0.10;;;;;;;;;;6224162;22;20042;-93
2022/09/11 15:13:05;;;;;;;0.10;0.10;;;;;;;;;;6225114;22;20156;-93
2022/09/11 15:15:33;;;;;;;0.00;0.00;;;;;;;;;;6224595;22;20016;-93
2022/09/11 15:18:00;;;;;;;0.15;0.15;;;;;;;;;;6225241;22;20658;-92
2022/09/11 15:20:26;;;;;;;0.10;0.10;;;;;;;;;;6223954;22;20082;-94